Terminal Aerodrome Forecast
Issued by NWS

Home | Current Version | Previous Version | Text Only | Print | Product List | Glossary On
Versions: 1 2 3 4 5 6 7 8 9 10 11 12 13 14 15 16 17 18 19
000
FTUS43 KGRB 030500
TAFCWA
TAF
KCWA 030520Z 0306/0406 VRB03KT 6SM BR SKC
     FM031600 19007KT P6SM FEW120 SCT200
     FM040000 15006KT P6SM BKN120 PROB30 0403/0406 3SM SHRA BR
      BKN040
      AMD LTD TO CLD VIS AND WIND TIL 031200=

USA.gov is the U.S. government's official web portal to all federal, state and local government web resources and services.